Time;durP1;ratioP1;P1;durP2;ratioP2;P2;SDS_P1;SDS_P2;PMS_P1;PMS_P2;Temp;Humidity;BMP_temperature;BMP_pressure;BME280_temperature;BME280_humidity;BME280_pressure;Samples;Min_cycle;Max_cycle;Signal;HPM_P1;HPM_P2
2022/01/28 00:01:19;;;;;;;32.65;20.12;;;;;;;-2.06;73.25;94800.17;828227;71;32771;-81
2022/01/28 00:46:10;;;;;;;43.68;24.57;;;;;;;-2.50;74.21;94770.78;833748;71;30364;-80
2022/01/28 01:01:10;;;;;;;49.77;23.80;;;;;;;-2.58;74.34;94761.49;834088;71;30294;-81
2022/01/28 01:16:12;;;;;;;47.33;24.55;;;;;;;-2.65;75.44;94742.25;828034;71;30032;-78
2022/01/28 01:31:14;;;;;;;39.75;21.62;;;;;;;-2.60;75.04;94711.33;833742;71;30149;-80
2022/01/28 01:46:26;;;;;;;38.50;22.70;;;;;;;-2.61;74.57;94696.42;828152;71;29611;-79
2022/01/28 02:01:10;;;;;;;35.17;19.52;;;;;;;-2.62;74.16;94691.78;833149;71;30373;-81
2022/01/28 02:16:09;;;;;;;41.48;19.87;;;;;;;-2.62;73.28;94684.55;833737;71;30000;-80
2022/01/28 02:31:18;;;;;;;29.57;18.00;;;;;;;-2.76;73.49;94658.11;827979;71;32493;-80
2022/01/28 02:46:16;;;;;;;34.63;17.67;;;;;;;-2.85;72.97;94669.09;829425;71;29652;-82
2022/01/28 03:01:08;;;;;;;32.13;16.75;;;;;;;-2.88;72.97;94641.73;794350;74;29796;-77
2022/01/28 03:16:16;;;;;;;25.95;14.87;;;;;;;-2.90;72.87;94630.41;833876;71;32965;-81
2022/01/28 03:31:10;;;;;;;23.07;13.58;;;;;;;-2.96;73.20;94611.96;829054;71;30213;-80
2022/01/28 03:46:13;;;;;;;26.25;13.50;;;;;;;-3.02;73.14;94599.93;834930;71;32296;-81
2022/01/28 04:01:16;;;;;;;26.68;13.85;;;;;;;-3.12;73.86;94583.66;829389;71;29510;-84
2022/01/28 04:16:34;;;;;;;29.10;13.43;;;;;;;-3.42;73.92;94560.20;833711;71;32854;-84
2022/01/28 04:31:08;;;;;;;29.15;13.78;;;;;;;-3.23;74.68;94597.86;828166;71;29954;-82
2022/01/28 05:01:51;;;;;;;26.20;12.60;;;;;;;-2.86;73.07;94599.50;827024;71;32660;-83
2022/01/28 05:31:10;;;;;;;25.85;14.28;;;;;;;-2.97;72.90;94601.38;827998;71;30190;-81
2022/01/28 05:46:17;;;;;;;29.85;15.40;;;;;;;-2.88;72.57;94603.23;827364;71;33207;-82
2022/01/28 06:01:14;;;;;;;33.63;16.40;;;;;;;-2.80;71.80;94605.58;827967;71;31562;-81
2022/01/28 06:16:19;;;;;;;35.88;18.80;;;;;;;-0.74;68.87;94615.09;833805;71;31762;-78
2022/01/28 06:46:37;;;;;;;41.18;24.77;;;;;;;5.22;52.49;94637.05;827506;71;31814;-76
2022/01/28 07:01:17;;;;;;;32.17;21.55;;;;;;;7.06;46.69;94631.44;826517;71;31815;-77
2022/01/28 07:16:16;;;;;;;42.60;27.65;;;;;;;8.86;44.31;94645.45;828434;71;31759;-78
2022/01/28 07:31:10;;;;;;;23.42;15.32;;;;;;;9.17;41.32;94650.45;831168;71;28690;-77
2022/01/28 07:46:09;;;;;;;24.37;14.13;;;;;;;8.13;43.56;94669.08;834075;71;28689;-76
2022/01/28 08:01:09;;;;;;;23.20;15.20;;;;;;;8.09;42.68;94692.08;829004;71;28671;-76
2022/01/28 08:16:11;;;;;;;30.48;18.75;;;;;;;8.13;42.48;94682.65;828245;71;30497;-77
2022/01/28 08:31:15;;;;;;;27.67;18.82;;;;;;;7.66;43.38;94638.13;826866;71;31800;-76
2022/01/28 08:46:10;;;;;;;30.20;17.95;;;;;;;6.85;44.87;94647.59;833826;71;29202;-77
2022/01/28 09:01:11;;;;;;;30.05;18.37;;;;;;;7.37;44.97;94669.50;827449;71;28830;-77
2022/01/28 09:16:11;;;;;;;33.30;18.07;;;;;;;8.85;43.65;94663.50;829383;71;29194;-79
2022/01/28 09:31:08;;;;;;;34.35;21.25;;;;;;;10.76;41.67;94662.61;819000;71;29799;-78
2022/01/28 09:46:08;;;;;;;71.62;46.85;;;;;;;10.28;40.82;94674.50;828021;71;28740;-76
2022/01/28 10:01:14;;;;;;;68.72;46.28;;;;;;;9.14;42.55;94657.53;833159;71;32634;-80
2022/01/28 10:16:20;;;;;;;79.90;48.10;;;;;;;8.33;43.78;94672.14;827527;71;30484;-78
2022/01/28 10:31:10;;;;;;;74.35;47.38;;;;;;;7.22;45.14;94682.05;827294;71;30163;-77
2022/01/28 10:46:36;;;;;;;75.78;42.75;;;;;;;6.44;46.90;94689.23;833231;71;32822;-81
2022/01/28 11:01:27;;;;;;;70.62;45.70;;;;;;;5.71;48.56;94691.22;828758;71;32822;-77
2022/01/28 11:16:09;;;;;;;66.00;41.50;;;;;;;5.82;50.71;94666.30;828911;71;29751;-79
2022/01/28 11:31:14;;;;;;;32.28;21.80;;;;;;;5.98;51.43;94652.05;824891;71;31958;-80
2022/01/28 11:46:39;;;;;;;9.15;7.10;;;;;;;6.28;52.14;94643.56;826691;71;32723;-76
2022/01/28 12:01:16;;;;;;;8.05;6.22;;;;;;;6.52;53.04;94626.17;827827;71;32825;-77
2022/01/28 12:31:14;;;;;;;5.78;5.17;;;;;;;6.96;55.62;94613.42;821597;71;30224;-76
2022/01/28 12:46:15;;;;;;;6.58;5.20;;;;;;;6.95;54.48;94626.72;833214;71;32416;-77
2022/01/28 13:01:11;;;;;;;6.47;5.45;;;;;;;7.01;57.54;94625.18;823541;71;29761;-78
2022/01/28 13:16:08;;;;;;;4.62;3.80;;;;;;;6.89;54.53;94623.33;827611;71;29749;-77
2022/01/28 13:31:18;;;;;;;7.22;5.60;;;;;;;6.71;55.39;94644.70;826738;71;32744;-77
2022/01/28 13:46:14;;;;;;;8.60;6.40;;;;;;;6.48;56.19;94684.55;827636;71;30181;-77
2022/01/28 14:01:09;;;;;;;6.58;5.90;;;;;;;6.06;56.75;94695.07;833648;71;29784;-78
2022/01/28 14:16:16;;;;;;;8.50;6.05;;;;;;;5.66;57.50;94697.69;834116;71;33514;-76
2022/01/28 14:46:09;;;;;;;5.70;5.08;;;;;;;4.88;59.60;94726.74;828020;71;29717;-78
2022/01/28 15:01:08;;;;;;;6.35;5.72;;;;;;;4.69;59.86;94719.29;827922;71;29682;-75
2022/01/28 15:16:17;;;;;;;8.00;5.83;;;;;;;4.38;59.60;94711.17;827841;71;32749;-77
2022/01/28 15:46:15;;;;;;;7.65;4.97;;;;;;;4.00;60.31;94701.11;826767;71;32736;-77
2022/01/28 16:01:08;;;;;;;4.58;4.05;;;;;;;3.93;60.01;94725.67;833402;71;30438;-78
2022/01/28 16:31:08;;;;;;;5.47;4.97;;;;;;;3.46;61.49;94756.66;828456;71;29722;-84
2022/01/28 16:46:12;;;;;;;6.97;5.45;;;;;;;3.39;61.43;94759.94;834577;71;32063;-83
2022/01/28 17:01:08;;;;;;;7.37;5.30;;;;;;;3.29;61.20;94755.38;789438;74;29803;-83
2022/01/28 17:16:10;;;;;;;6.67;5.05;;;;;;;3.19;60.70;94760.39;828503;71;30693;-85
2022/01/28 17:31:12;;;;;;;5.92;4.95;;;;;;;3.11;60.74;94782.30;835683;70;32039;-85
2022/01/28 17:46:24;;;;;;;;;;;;;;;;;;;;;
2022/01/28 18:01:14;;;;;;;4.58;4.15;;;;;;;3.14;60.73;94816.84;829894;70;32700;-82
2022/01/28 18:16:11;;;;;;;5.05;4.40;;;;;;;3.22;60.53;94828.62;794341;74;31622;-81
2022/01/28 18:31:21;;;;;;;7.05;5.90;;;;;;;3.24;60.67;94821.39;827179;71;32840;-81
2022/01/28 18:46:11;;;;;;;8.68;5.90;;;;;;;3.23;60.38;94825.53;828085;71;30065;-81
2022/01/28 19:01:33;;;;;;;8.45;5.28;;;;;;;3.26;60.32;94836.20;819221;71;33243;-80
2022/01/28 19:16:33;;;;;;;;;;;;;;;;;;;;;
2022/01/28 19:31:10;;;;;;;7.03;5.65;;;;;;;3.28;61.24;94863.98;821565;71;29752;-82
2022/01/28 19:46:29;;;;;;;8.88;6.17;;;;;;;3.32;61.69;94857.83;833785;71;33220;-83
2022/01/28 20:01:09;;;;;;;8.05;5.70;;;;;;;3.32;61.60;94845.64;829175;71;30393;-83
2022/01/28 20:16:18;;;;;;;9.78;6.28;;;;;;;3.18;61.20;94836.09;829505;71;32627;-79
2022/01/28 20:31:18;;;;;;;5.75;4.90;;;;;;;3.24;60.62;94842.66;828802;71;32646;-80
2022/01/28 20:46:14;;;;;;;7.53;6.17;;;;;;;3.20;60.63;94835.84;828393;71;32002;-83
2022/01/28 21:01:14;;;;;;;7.80;5.72;;;;;;;3.09;60.31;94846.55;826930;71;32750;-81
2022/01/28 21:16:15;;;;;;;6.10;5.00;;;;;;;2.93;60.13;94854.54;833586;71;33202;-81
2022/01/28 21:31:12;;;;;;;7.72;5.22;;;;;;;2.83;60.21;94859.53;829539;71;32097;-81
2022/01/28 21:46:22;;;;;;;9.38;5.65;;;;;;;2.66;60.25;94855.58;833807;71;33158;-83
2022/01/28 22:01:09;;;;;;;7.97;5.60;;;;;;;2.53;60.38;94849.34;834193;71;30851;-83
2022/01/28 22:16:15;;;;;;;6.37;5.20;;;;;;;2.36;60.59;94829.33;833751;71;32673;-81
2022/01/28 22:31:10;;;;;;;9.93;6.37;;;;;;;2.26;60.62;94839.98;828070;71;30277;-81
2022/01/28 22:46:16;;;;;;;8.25;5.95;;;;;;;2.17;61.26;94824.80;827525;71;33156;-83
2022/01/28 23:01:16;;;;;;;7.90;5.90;;;;;;;2.47;61.15;94830.31;828640;71;32696;-81
2022/01/28 23:16:10;;;;;;;7.83;6.03;;;;;;;2.59;60.61;94825.12;828437;71;30341;-83
2022/01/28 23:31:15;;;;;;;6.20;5.42;;;;;;;2.69;60.05;94808.99;823233;71;32774;-83
2022/01/28 23:46:08;;;;;;;4.92;4.42;;;;;;;2.78;59.19;94815.40;827916;71;29754;-83
